Time;durP1;ratioP1;P1;durP2;ratioP2;P2;SDS_P1;SDS_P2;PMS_P1;PMS_P2;Temp;Humidity;BMP_temperature;BMP_pressure;BME280_temperature;BME280_humidity;BME280_pressure;Samples;Min_cycle;Max_cycle;Signal;HPM_P1;HPM_P2
2023/06/19 00:01:22;;;;;;;7.93;2.78;;;;;;;16.91;100.00;99004.91;7395294;19;20736;-57
2023/06/19 00:03:48;;;;;;;20.25;3.50;;;;;;;17.48;100.00;98991.97;7395577;19;20010;-57
2023/06/19 00:06:15;;;;;;;6.32;2.55;;;;;;;16.87;100.00;98990.38;7395872;19;20046;-57
2023/06/19 00:08:42;;;;;;;10.23;2.67;;;;;;;16.78;100.00;98992.88;7395620;19;20019;-57
2023/06/19 00:11:08;;;;;;;8.75;2.35;;;;;;;16.80;100.00;98995.91;7395868;19;20010;-56
2023/06/19 00:13:34;;;;;;;9.43;3.92;;;;;;;16.61;100.00;98991.13;7390191;19;20018;-59
2023/06/19 00:16:01;;;;;;;5.40;1.83;;;;;;;16.91;100.00;98996.47;7391555;19;20010;-59
2023/06/19 00:18:28;;;;;;;7.20;1.92;;;;;;;16.58;100.00;99003.44;7394412;19;20021;-59
2023/06/19 00:20:56;;;;;;;6.32;2.13;;;;;;;16.38;100.00;99012.44;7394589;19;20462;-59
2023/06/19 00:23:23;;;;;;;6.05;2.03;;;;;;;16.29;100.00;99012.84;7398130;19;20035;-59
2023/06/19 00:25:49;;;;;;;6.82;2.63;;;;;;;16.54;100.00;99011.44;7393663;19;20014;-59
2023/06/19 00:28:19;;;;;;;10.32;2.35;;;;;;;17.40;100.00;98985.50;7392337;19;20018;-58
2023/06/19 00:30:45;;;;;;;8.82;2.75;;;;;;;19.29;100.00;98976.75;7394446;19;20105;-58
2023/06/19 00:33:13;;;;;;;5.20;1.95;;;;;;;17.25;100.00;98991.69;7392538;19;20021;-58
2023/06/19 00:35:41;;;;;;;5.38;1.70;;;;;;;16.84;100.00;98990.72;7395018;19;20075;-59
2023/06/19 00:38:07;;;;;;;7.65;2.50;;;;;;;16.45;100.00;99006.19;7392057;19;20017;-59
2023/06/19 00:40:34;;;;;;;9.68;2.88;;;;;;;16.75;100.00;99005.97;7393175;19;20463;-59
2023/06/19 00:43:00;;;;;;;2.92;1.77;;;;;;;16.85;100.00;98998.59;7395391;19;20321;-58
2023/06/19 00:45:27;;;;;;;9.85;2.95;;;;;;;16.25;100.00;99008.81;7394625;19;20025;-58
2023/06/19 00:47:54;;;;;;;5.28;2.15;;;;;;;16.15;100.00;99016.13;7393654;19;20018;-58
2023/06/19 00:50:24;;;;;;;2.85;1.65;;;;;;;16.34;100.00;99006.38;7392082;19;20010;-59
2023/06/19 00:52:50;;;;;;;3.97;1.58;;;;;;;16.39;100.00;99005.53;7395131;19;20019;-58
2023/06/19 00:55:17;;;;;;;4.95;2.00;;;;;;;16.25;100.00;99006.78;7396324;19;20011;-58
2023/06/19 00:57:43;;;;;;;16.15;2.20;;;;;;;16.30;100.00;99011.56;7392650;19;20058;-58
2023/06/19 01:00:12;;;;;;;2.85;2.08;;;;;;;16.76;100.00;99006.72;7394427;19;20015;-58
2023/06/19 01:02:39;;;;;;;23.60;3.67;;;;;;;16.44;100.00;99007.47;7394383;19;20481;-58
2023/06/19 01:05:06;;;;;;;5.25;2.47;;;;;;;15.94;100.00;99013.13;7393409;19;20023;-58
2023/06/19 01:07:57;;;;;;;4.35;2.17;;;;;;;15.59;100.00;99021.78;7391060;19;20022;-58
2023/06/19 01:10:27;;;;;;;;;;;;;;;16.15;100.00;99021.75;7394271;19;20412;-58
2023/06/19 01:13:06;;;;;;;2.47;0.73;;;;;;;16.62;100.00;99015.13;7393579;19;19928;-58
2023/06/19 01:15:33;;;;;;;5.20;1.42;;;;;;;15.77;100.00;99018.22;7393646;19;20011;-58
2023/06/19 01:18:02;;;;;;;2.20;0.90;;;;;;;15.68;100.00;99030.59;7391550;19;20019;-58
2023/06/19 01:20:28;;;;;;;7.88;2.00;;;;;;;15.75;100.00;99032.03;7392272;19;20078;-58
2023/06/19 01:22:56;;;;;;;1.60;0.50;;;;;;;15.80;100.00;99023.53;7397295;19;20009;-58
2023/06/19 01:25:25;;;;;;;3.35;0.70;;;;;;;15.80;100.00;99026.34;7391672;19;20017;-58
2023/06/19 01:27:51;;;;;;;6.43;1.70;;;;;;;15.78;100.00;99033.78;7391918;19;20011;-58
2023/06/19 01:30:18;;;;;;;9.35;1.65;;;;;;;16.12;100.00;99034.81;7392562;19;20006;-58
2023/06/19 01:33:00;;;;;;;2.35;1.13;;;;;;;15.76;100.00;99030.75;7393193;19;20007;-58
2023/06/19 01:35:34;;;;;;;6.70;2.22;;;;;;;15.97;100.00;99033.75;7391793;19;20021;-58
2023/06/19 01:38:02;;;;;;;4.43;1.60;;;;;;;15.84;100.00;99037.25;7391542;19;20014;-58
2023/06/19 01:40:31;;;;;;;14.32;1.52;;;;;;;15.96;100.00;99027.38;7391309;19;20467;-58
2023/06/19 01:43:01;;;;;;;5.78;1.45;;;;;;;15.99;100.00;99026.31;7393301;19;20010;-58
2023/06/19 01:45:30;;;;;;;4.93;1.35;;;;;;;15.96;100.00;99032.25;7400171;19;20467;-58
2023/06/19 01:47:57;;;;;;;4.10;0.90;;;;;;;15.98;100.00;99035.28;7399334;19;20018;-58
2023/06/19 01:50:24;;;;;;;5.90;1.70;;;;;;;16.32;100.00;99037.06;7398255;19;20021;-58
2023/06/19 01:52:51;;;;;;;7.82;1.73;;;;;;;17.29;100.00;99011.06;7401436;19;20014;-58
2023/06/19 01:55:18;;;;;;;4.55;2.13;;;;;;;18.36;100.00;99005.38;7397545;19;20038;-58
2023/06/19 01:57:45;;;;;;;7.97;1.35;;;;;;;16.35;100.00;99030.38;7398393;19;20351;-58
2023/06/19 02:00:12;;;;;;;21.52;1.90;;;;;;;16.52;100.00;99033.69;7399499;19;20232;-58
2023/06/19 02:02:42;;;;;;;0.80;0.40;;;;;;;16.19;100.00;99034.19;7399578;19;20045;-58
2023/06/19 02:05:08;;;;;;;3.40;1.10;;;;;;;16.06;100.00;99031.34;7399230;19;20014;-58
2023/06/19 02:07:35;;;;;;;9.07;2.25;;;;;;;16.68;100.00;99032.66;7399130;19;20343;-59
2023/06/19 02:10:01;;;;;;;3.88;1.33;;;;;;;16.01;100.00;99040.59;7398125;19;20038;-58
2023/06/19 02:12:27;;;;;;;6.25;1.38;;;;;;;15.69;100.00;99025.72;7401493;19;20034;-58
2023/06/19 02:14:53;;;;;;;3.35;0.88;;;;;;;15.60;100.00;99040.13;7399169;19;20018;-58
2023/06/19 02:17:19;;;;;;;3.35;0.60;;;;;;;15.19;100.00;99037.53;7398126;19;20015;-58
2023/06/19 02:19:45;;;;;;;5.38;1.33;;;;;;;15.53;100.00;99035.13;7395075;19;20022;-58
2023/06/19 02:22:11;;;;;;;2.20;0.95;;;;;;;15.53;100.00;99040.72;7402044;19;20011;-58
2023/06/19 02:24:39;;;;;;;1.45;1.00;;;;;;;16.27;100.00;99031.53;7399375;19;20007;-58
2023/06/19 02:27:06;;;;;;;2.63;1.48;;;;;;;16.05;100.00;99027.00;7398967;19;20335;-58
2023/06/19 02:29:33;;;;;;;7.32;1.65;;;;;;;15.98;100.00;99022.00;7399064;19;20010;-58
2023/06/19 02:32:00;;;;;;;2.13;0.82;;;;;;;15.58;100.00;99031.50;7401359;19;20043;-58
2023/06/19 02:34:26;;;;;;;3.58;2.10;;;;;;;15.72;100.00;99035.91;7398061;19;20011;-58
2023/06/19 02:36:53;;;;;;;2.08;1.20;;;;;;;20.24;100.00;99008.59;7397327;19;20017;-58
2023/06/19 02:39:19;;;;;;;7.55;1.05;;;;;;;18.13;100.00;99002.34;7394759;19;20347;-58
2023/06/19 02:41:45;;;;;;;3.60;0.85;;;;;;;16.64;100.00;99012.53;7402097;19;20019;-58
2023/06/19 02:44:12;;;;;;;4.20;1.60;;;;;;;16.50;100.00;99021.47;7398617;19;20345;-58
2023/06/19 02:46:38;;;;;;;5.45;0.80;;;;;;;18.38;100.00;99008.41;7398502;19;20049;-58
2023/06/19 02:49:04;;;;;;;5.72;1.38;;;;;;;18.29;100.00;99001.19;7395909;19;20366;-58
2023/06/19 02:51:31;;;;;;;2.88;0.75;;;;;;;24.19;100.00;99012.91;7396120;19;20018;-58
2023/06/19 02:53:57;;;;;;;3.88;1.15;;;;;;;22.89;100.00;99011.34;7394066;19;20017;-58
2023/06/19 02:56:28;;;;;;;3.10;0.95;;;;;;;25.82;100.00;99004.78;7391466;19;20339;-58
2023/06/19 02:58:54;;;;;;;2.92;1.38;;;;;;;17.13;100.00;99012.16;7393123;19;20360;-58
2023/06/19 03:01:20;;;;;;;5.90;1.60;;;;;;;15.67;100.00;99019.91;7395817;19;20010;-58
2023/06/19 03:03:47;;;;;;;2.85;1.02;;;;;;;15.67;100.00;99019.91;7393735;19;20459;-58
2023/06/19 03:06:14;;;;;;;2.70;0.55;;;;;;;14.83;100.00;99028.50;7396982;19;20014;-58
2023/06/19 03:08:41;;;;;;;4.65;0.85;;;;;;;14.82;100.00;99029.78;7396080;19;20011;-58
2023/06/19 03:11:07;;;;;;;3.88;1.00;;;;;;;14.45;100.00;99029.59;7399002;19;20011;-58
2023/06/19 03:13:50;;;;;;;5.78;1.23;;;;;;;13.72;100.00;99039.75;7395459;19;20022;-58
2023/06/19 03:16:18;;;;;;;4.57;1.27;;;;;;;13.85;100.00;99039.16;7397180;19;20024;-58
2023/06/19 03:18:44;;;;;;;5.38;1.27;;;;;;;14.10;100.00;99032.38;7394229;19;20018;-58
2023/06/19 03:21:12;;;;;;;3.10;0.82;;;;;;;15.09;100.00;99020.28;7397233;19;20039;-58
2023/06/19 03:23:40;;;;;;;3.53;0.93;;;;;;;14.17;100.00;99037.41;7397065;19;20487;-58
2023/06/19 03:26:11;;;;;;;2.50;1.02;;;;;;;28.58;100.00;99003.69;7395277;19;20337;-58
2023/06/19 03:28:39;;;;;;;2.35;0.80;;;;;;;19.22;100.00;99016.22;7395696;19;20042;-58
2023/06/19 03:31:08;;;;;;;2.38;1.55;;;;;;;15.24;100.00;99030.34;7398453;19;20034;-58
2023/06/19 03:33:34;;;;;;;1.50;1.05;;;;;;;20.55;100.00;99015.81;7397187;19;20011;-58
2023/06/19 03:36:01;;;;;;;1.73;0.88;;;;;;;16.75;100.00;99022.06;7398006;19;20078;-58
2023/06/19 03:38:45;;;;;;;2.63;1.42;;;;;;;14.58;100.00;99035.34;7394450;19;20006;-58
2023/06/19 03:41:14;;;;;;;1.02;0.75;;;;;;;14.08;100.00;99044.09;7397010;19;20462;-58
2023/06/19 03:43:41;;;;;;;6.28;1.83;;;;;;;13.44;100.00;99051.06;7394416;19;20017;-58
2023/06/19 03:46:07;;;;;;;3.35;1.17;;;;;;;14.16;100.00;99047.84;7396313;19;20034;-57
2023/06/19 03:48:34;;;;;;;4.50;1.70;;;;;;;14.98;100.00;99030.88;7396707;19;20014;-57
2023/06/19 03:51:01;;;;;;;2.45;0.90;;;;;;;14.49;100.00;99046.88;7398502;19;20015;-57
2023/06/19 03:53:27;;;;;;;1.88;0.88;;;;;;;15.02;100.00;99045.38;7399885;19;20450;-57
2023/06/19 03:55:54;;;;;;;5.53;1.02;;;;;;;16.26;100.00;99033.59;7394429;19;20025;-57
2023/06/19 03:58:20;;;;;;;2.65;1.45;;;;;;;27.20;100.00;99016.81;7395873;19;20104;-58
2023/06/19 04:00:47;;;;;;;4.63;0.95;;;;;;;34.70;62.59;99012.44;7397550;19;20470;-58
2023/06/19 04:03:13;;;;;;;4.93;0.85;;;;;;;37.40;51.16;99000.28;7396350;19;20022;-58
2023/06/19 04:05:41;;;;;;;5.97;1.25;;;;;;;39.99;42.28;98994.31;7394713;19;20066;-58
2023/06/19 04:08:07;;;;;;;1.60;0.70;;;;;;;41.30;38.76;98986.59;7395724;19;20007;-58
2023/06/19 04:10:33;;;;;;;4.85;0.95;;;;;;;33.57;45.21;99002.09;7395785;19;20013;-58
2023/06/19 04:13:00;;;;;;;3.85;1.25;;;;;;;28.13;100.00;99011.56;7393475;19;20010;-58
2023/06/19 04:15:26;;;;;;;1.70;0.70;;;;;;;18.10;100.00;99018.28;7394207;19;20023;-58
2023/06/19 04:17:53;;;;;;;4.57;1.15;;;;;;;19.86;100.00;99007.72;7393578;19;20443;-58
2023/06/19 04:20:19;;;;;;;2.50;0.90;;;;;;;21.54;100.00;99016.47;7395246;19;20014;-58
2023/06/19 04:22:47;;;;;;;15.90;2.08;;;;;;;37.94;52.45;99001.69;7397999;19;20011;-58
2023/06/19 04:25:13;;;;;;;6.93;1.20;;;;;;;40.21;42.62;99001.94;7392993;19;20025;-58
2023/06/19 04:27:39;;;;;;;2.03;0.75;;;;;;;39.23;41.21;99005.31;7393419;19;20025;-58
2023/06/19 04:30:06;;;;;;;4.82;1.63;;;;;;;23.90;100.00;99020.50;7394974;19;20015;-58
2023/06/19 04:32:34;;;;;;;3.45;1.67;;;;;;;19.56;100.00;99034.53;7399208;19;20020;-58
2023/06/19 04:35:01;;;;;;;3.50;1.45;;;;;;;17.68;100.00;99030.75;7394655;19;20463;-58
2023/06/19 04:37:27;;;;;;;3.53;1.02;;;;;;;18.53;100.00;99036.78;7394556;19;20066;-58
2023/06/19 04:39:53;;;;;;;2.47;0.82;;;;;;;17.33;100.00;99037.59;7392707;19;20348;-58
2023/06/19 04:42:20;;;;;;;4.05;1.52;;;;;;;16.08;100.00;99042.78;7398786;19;20014;-58
2023/06/19 04:44:47;;;;;;;12.20;1.58;;;;;;;15.89;100.00;99050.47;7394536;19;20026;-58
2023/06/19 04:47:14;;;;;;;3.25;1.02;;;;;;;17.50;100.00;99031.63;7394531;19;20006;-58
2023/06/19 04:49:40;;;;;;;5.10;1.42;;;;;;;18.18;100.00;99047.31;7393594;19;20404;-58
2023/06/19 04:52:06;;;;;;;3.25;0.65;;;;;;;26.09;100.00;99039.66;7397123;19;20014;-58
2023/06/19 04:54:32;;;;;;;5.50;0.95;;;;;;;31.38;86.17;99041.38;7392919;19;20359;-58
2023/06/19 04:56:59;;;;;;;2.42;0.90;;;;;;;35.54;58.16;99045.97;7393920;19;20015;-58
2023/06/19 04:59:26;;;;;;;8.23;1.33;;;;;;;37.61;48.28;99037.91;7395899;19;20475;-58
2023/06/19 05:01:54;;;;;;;3.75;1.95;;;;;;;38.37;44.65;99041.28;7396945;19;20011;-58
2023/06/19 05:04:22;;;;;;;2.75;0.98;;;;;;;39.63;41.64;99034.50;7394446;19;20014;-58
2023/06/19 05:06:50;;;;;;;3.70;0.82;;;;;;;20.47;100.00;99065.19;7394024;19;20015;-58
2023/06/19 05:09:16;;;;;;;8.93;2.30;;;;;;;23.72;100.00;99051.06;7393527;19;20343;-58
2023/06/19 05:11:45;;;;;;;2.08;0.80;;;;;;;24.12;100.00;99062.16;7396307;19;20021;-58
2023/06/19 05:14:14;;;;;;;3.70;0.88;;;;;;;17.13;100.00;99071.25;7391431;19;20462;-58
2023/06/19 05:16:40;;;;;;;6.00;1.33;;;;;;;29.17;86.38;99063.31;7392476;19;20008;-58
2023/06/19 05:19:06;;;;;;;1.88;1.23;;;;;;;21.46;100.00;99075.97;7395884;19;20007;-58
2023/06/19 05:21:32;;;;;;;7.88;1.48;;;;;;;17.14;100.00;99072.75;7402685;19;20026;-58
2023/06/19 05:23:58;;;;;;;1.42;0.50;;;;;;;15.46;100.00;99087.00;7401252;19;20022;-58
2023/06/19 05:26:26;;;;;;;4.63;1.98;;;;;;;16.53;100.00;99085.81;7400661;19;20034;-58
2023/06/19 05:28:52;;;;;;;2.72;0.50;;;;;;;15.62;100.00;99100.06;7401115;19;20460;-58
2023/06/19 05:31:19;;;;;;;2.15;0.95;;;;;;;22.78;100.00;99079.97;7402705;19;20421;-58
2023/06/19 05:33:45;;;;;;;0.70;0.52;;;;;;;19.23;100.00;99089.06;7399980;19;20014;-58
2023/06/19 05:36:11;;;;;;;3.28;1.20;;;;;;;25.81;100.00;99077.50;7399952;19;20360;-58
2023/06/19 05:38:37;;;;;;;5.90;0.90;;;;;;;21.70;100.00;99094.44;7399571;19;20018;-58
2023/06/19 05:41:03;;;;;;;5.65;1.25;;;;;;;33.91;72.95;99080.81;7402129;19;20010;-58
2023/06/19 05:43:30;;;;;;;3.35;1.05;;;;;;;36.32;57.72;99082.66;7400130;19;20027;-58
2023/06/19 05:45:58;;;;;;;2.22;0.80;;;;;;;37.81;49.89;99069.69;7399690;19;20041;-58
2023/06/19 05:48:25;;;;;;;4.10;1.48;;;;;;;24.97;100.00;99086.75;7399048;19;20102;-58
2023/06/19 05:50:52;;;;;;;2.60;0.70;;;;;;;34.50;69.88;99077.44;7398409;19;20526;-58
2023/06/19 05:53:18;;;;;;;2.47;0.90;;;;;;;37.32;52.27;99072.69;7404575;19;20007;-59
2023/06/19 05:55:44;;;;;;;2.00;0.75;;;;;;;37.98;48.20;99077.41;7400112;19;20010;-59
2023/06/19 05:58:10;;;;;;;1.65;0.70;;;;;;;35.45;48.87;99082.56;7400432;19;20028;-58
2023/06/19 06:00:36;;;;;;;4.90;1.67;;;;;;;30.70;57.43;99090.22;7401212;19;20014;-58
2023/06/19 06:03:02;;;;;;;3.40;1.02;;;;;;;28.07;85.56;99083.50;7398957;19;20018;-58
2023/06/19 06:05:28;;;;;;;2.83;0.73;;;;;;;31.89;82.36;99087.19;7399914;19;20014;-58
2023/06/19 06:07:55;;;;;;;0.70;0.70;;;;;;;37.46;52.33;99076.00;7399998;19;20089;-58
2023/06/19 06:10:22;;;;;;;6.65;0.60;;;;;;;38.87;46.12;99079.56;7399956;19;20048;-58
2023/06/19 06:12:49;;;;;;;1.77;0.68;;;;;;;22.49;100.00;99100.19;7399701;19;20024;-58
2023/06/19 06:15:16;;;;;;;2.83;0.45;;;;;;;18.96;100.00;99103.91;7400027;19;20022;-58
2023/06/19 06:17:42;;;;;;;4.80;0.52;;;;;;;19.19;100.00;99107.69;7398797;19;20027;-58
2023/06/19 06:20:12;;;;;;;1.17;0.73;;;;;;;16.54;100.00;99117.50;7398181;19;20347;-58
2023/06/19 06:22:42;;;;;;;3.97;0.98;;;;;;;16.16;100.00;99124.38;7401929;19;20065;-58
2023/06/19 06:25:12;;;;;;;1.27;0.65;;;;;;;15.87;100.00;99129.63;7399055;19;20014;-58
2023/06/19 06:27:38;;;;;;;1.58;0.55;;;;;;;15.93;100.00;99141.56;7398606;19;20011;-58
2023/06/19 06:30:05;;;;;;;2.67;0.90;;;;;;;15.81;100.00;99133.78;7395559;19;20019;-58
2023/06/19 06:32:31;;;;;;;3.08;1.00;;;;;;;15.99;100.00;99144.28;7402456;19;20403;-58
2023/06/19 06:34:58;;;;;;;1.02;0.40;;;;;;;16.36;100.00;99135.09;7397562;19;20028;-58
2023/06/19 06:37:25;;;;;;;4.35;0.63;;;;;;;20.96;100.00;99114.47;7396228;19;20038;-58
2023/06/19 06:39:52;;;;;;;4.60;0.73;;;;;;;17.00;100.00;99127.50;7395766;19;20014;-58
2023/06/19 06:42:18;;;;;;;2.50;1.00;;;;;;;17.00;100.00;99139.47;7402086;19;20480;-58
2023/06/19 06:44:45;;;;;;;1.13;0.45;;;;;;;16.84;100.00;99142.59;7398281;19;20011;-58
2023/06/19 06:47:11;;;;;;;3.70;1.33;;;;;;;17.54;100.00;99130.63;7398725;19;20335;-57
2023/06/19 06:49:37;;;;;;;6.93;1.92;;;;;;;16.80;100.00;99150.56;7398449;19;20011;-58
2023/06/19 06:52:04;;;;;;;3.65;1.30;;;;;;;18.43;100.00;99162.59;7401402;19;20218;-58
2023/06/19 06:54:30;;;;;;;1.27;1.00;;;;;;;17.61;100.00;99158.13;7398009;19;20007;-58
2023/06/19 06:56:58;;;;;;;1.98;0.77;;;;;;;20.74;100.00;99126.56;7397620;19;20494;-58
2023/06/19 06:59:25;;;;;;;4.18;0.63;;;;;;;30.29;100.00;99131.66;7396527;19;20478;-58
2023/06/19 07:01:51;;;;;;;4.75;1.20;;;;;;;32.88;67.50;99124.50;7400455;19;20021;-58
2023/06/19 07:04:17;;;;;;;13.15;1.65;;;;;;;21.48;100.00;99146.25;7396968;19;20011;-58
2023/06/19 07:06:43;;;;;;;1.70;0.75;;;;;;;19.56;100.00;99127.75;7396707;19;20467;-58
2023/06/19 07:09:09;;;;;;;3.28;0.68;;;;;;;17.94;100.00;99149.03;7396684;19;20034;-58
2023/06/19 07:11:36;;;;;;;4.15;1.10;;;;;;;20.50;100.00;99141.22;7399365;19;20121;-58
2023/06/19 07:14:02;;;;;;;2.83;0.55;;;;;;;18.96;100.00;99146.22;7396674;19;20014;-58
2023/06/19 07:16:28;;;;;;;5.15;1.38;;;;;;;17.66;100.00;99154.44;7396545;19;20015;-58
2023/06/19 07:18:55;;;;;;;2.05;0.57;;;;;;;17.59;100.00;99155.09;7395898;19;20038;-58
2023/06/19 07:21:21;;;;;;;3.50;0.82;;;;;;;17.39;100.00;99158.50;7398340;19;20007;-58
2023/06/19 07:23:47;;;;;;;3.47;1.10;;;;;;;26.91;100.00;99133.41;7396147;19;20011;-58
2023/06/19 07:26:14;;;;;;;2.22;0.77;;;;;;;18.59;100.00;99155.84;7396633;19;20827;-58
2023/06/19 07:28:43;;;;;;;10.48;0.63;;;;;;;18.08;100.00;99156.16;7396134;19;20029;-58
2023/06/19 07:31:09;;;;;;;3.92;0.82;;;;;;;18.00;100.00;99166.56;7395844;19;20014;-58
2023/06/19 07:33:35;;;;;;;2.35;0.68;;;;;;;18.17;100.00;99169.78;7396527;19;20010;-58
2023/06/19 07:36:04;;;;;;;4.07;1.00;;;;;;;18.44;100.00;99164.09;7396722;19;20010;-58
2023/06/19 07:38:30;;;;;;;2.40;1.05;;;;;;;18.55;100.00;99163.88;7395202;19;20014;-58
2023/06/19 07:40:56;;;;;;;1.88;1.08;;;;;;;18.75;100.00;99165.97;7396620;19;20074;-59
2023/06/19 07:43:22;;;;;;;2.58;0.88;;;;;;;18.72;100.00;99167.06;7396410;19;20019;-59
2023/06/19 07:45:49;;;;;;;4.40;0.73;;;;;;;18.69;100.00;99173.81;7396093;19;20474;-58
2023/06/19 07:48:15;;;;;;;3.70;0.50;;;;;;;18.93;100.00;99176.31;7395618;19;20011;-57
2023/06/19 07:50:42;;;;;;;3.72;1.27;;;;;;;18.56;100.00;99174.59;7396571;19;20574;-57
2023/06/19 07:53:08;;;;;;;1.67;0.63;;;;;;;18.46;100.00;99173.56;7399472;19;20018;-58
2023/06/19 07:55:35;;;;;;;4.65;2.28;;;;;;;18.53;100.00;99172.13;7395309;19;20344;-58
2023/06/19 07:58:01;;;;;;;1.40;0.55;;;;;;;18.48;100.00;99164.53;7395970;19;20011;-57
2023/06/19 08:00:27;;;;;;;5.00;0.80;;;;;;;18.45;100.00;99162.84;7395601;19;20010;-57
2023/06/19 08:02:54;;;;;;;3.42;1.20;;;;;;;18.57;100.00;99167.69;7395217;19;20010;-57
2023/06/19 08:05:20;;;;;;;3.10;0.68;;;;;;;18.87;100.00;99155.94;7395661;19;20011;-57
2023/06/19 08:07:46;;;;;;;2.30;1.00;;;;;;;18.68;100.00;99161.00;7394842;19;20015;-57
2023/06/19 08:10:12;;;;;;;1.13;0.90;;;;;;;18.63;100.00;99159.06;7393454;19;20028;-58
2023/06/19 08:12:40;;;;;;;2.15;0.55;;;;;;;18.54;100.00;99159.53;7393774;19;20026;-58
2023/06/19 08:15:07;;;;;;;1.45;0.50;;;;;;;18.39;100.00;99153.69;7395195;19;20010;-58
2023/06/19 08:17:34;;;;;;;1.20;0.60;;;;;;;18.34;100.00;99160.22;7394638;19;20011;-57
2023/06/19 08:20:01;;;;;;;1.60;0.57;;;;;;;24.14;100.00;99139.16;7393442;19;20027;-57
2023/06/19 08:22:27;;;;;;;1.67;0.80;;;;;;;20.06;100.00;99143.28;7398865;19;20026;-57
2023/06/19 08:24:53;;;;;;;0.68;0.50;;;;;;;19.36;100.00;99148.28;7394158;19;20011;-57
2023/06/19 08:27:19;;;;;;;5.97;1.23;;;;;;;19.26;100.00;99147.25;7393906;19;20023;-57
2023/06/19 08:29:45;;;;;;;9.38;1.92;;;;;;;19.30;100.00;99150.50;7394478;19;20022;-57
2023/06/19 08:32:11;;;;;;;6.68;1.30;;;;;;;19.47;100.00;99150.84;7397667;19;20015;-57
2023/06/19 08:34:38;;;;;;;5.38;1.20;;;;;;;19.75;100.00;99155.72;7395006;19;20014;-58
2023/06/19 08:37:05;;;;;;;0.93;0.43;;;;;;;22.99;100.00;99134.31;7394920;19;20018;-58
2023/06/19 08:39:32;;;;;;;8.10;0.80;;;;;;;20.54;100.00;99141.59;7393766;19;20461;-58
2023/06/19 08:41:58;;;;;;;2.63;0.95;;;;;;;20.27;100.00;99146.03;7397823;19;20078;-58
2023/06/19 08:44:24;;;;;;;4.32;1.33;;;;;;;20.21;100.00;99142.59;7392134;19;20014;-59
2023/06/19 08:46:50;;;;;;;6.65;1.48;;;;;;;20.27;100.00;99143.22;7393661;19;20017;-58
2023/06/19 08:49:17;;;;;;;1.55;0.47;;;;;;;20.27;100.00;99143.22;7393957;19;20088;-58
2023/06/19 08:51:44;;;;;;;3.22;1.02;;;;;;;20.37;100.00;99139.28;7395141;19;20021;-58
2023/06/19 08:54:10;;;;;;;2.75;1.02;;;;;;;20.30;100.00;99139.25;7392053;19;20010;-59
2023/06/19 08:56:39;;;;;;;4.13;0.95;;;;;;;23.12;100.00;99131.94;7392858;19;20553;-58
2023/06/19 08:59:17;;;;;;;4.53;1.50;;;;;;;26.95;100.00;99145.88;7396962;19;20031;-58
2023/06/19 09:01:53;;;;;;;2.25;0.68;;;;;;;21.42;100.00;99142.84;7396244;19;20007;-59
2023/06/19 09:04:26;;;;;;;2.08;0.52;;;;;;;22.79;100.00;99139.00;7392279;19;20011;-59
2023/06/19 09:06:54;;;;;;;1.70;0.60;;;;;;;22.17;100.00;99141.94;7393481;19;20499;-59
2023/06/19 09:09:21;;;;;;;1.08;0.65;;;;;;;26.29;100.00;99138.19;7393410;19;20347;-60
2023/06/19 09:12:03;;;;;;;1.88;0.65;;;;;;;42.54;50.43;99120.91;7396443;19;20366;-59
2023/06/19 09:14:34;;;;;;;2.72;0.93;;;;;;;44.83;39.58;99121.59;7390857;19;20038;-60
2023/06/19 09:17:02;;;;;;;7.63;0.85;;;;;;;42.59;38.13;99126.06;7392435;19;20362;-59
2023/06/19 09:19:29;;;;;;;2.20;0.43;;;;;;;44.78;35.25;99122.31;7392100;19;20029;-59
2023/06/19 09:22:08;;;;;;;1.98;0.95;;;;;;;44.88;35.08;99125.25;7395801;19;20021;-59
2023/06/19 09:24:38;;;;;;;2.40;0.35;;;;;;;45.13;33.88;99126.66;7392521;19;20058;-59
2023/06/19 09:27:13;;;;;;;2.38;0.63;;;;;;;44.71;33.17;99129.66;7391775;19;20034;-59
2023/06/19 09:29:41;;;;;;;1.30;0.43;;;;;;;43.15;33.32;99124.94;7392593;19;20021;-59
2023/06/19 09:32:24;;;;;;;1.67;0.22;;;;;;;44.05;33.16;99124.53;7392229;19;20014;-59
2023/06/19 09:34:53;;;;;;;2.15;0.55;;;;;;;27.07;94.85;99148.84;7395073;19;20014;-60
2023/06/19 09:37:32;;;;;;;3.22;0.30;;;;;;;28.10;100.00;99145.25;7393434;19;20010;-60
2023/06/19 09:40:10;;;;;;;4.72;0.75;;;;;;;22.71;100.00;99148.91;7389534;19;20470;-59
2023/06/19 09:42:39;;;;;;;6.65;0.65;;;;;;;25.89;100.00;99146.56;7393334;19;20471;-59
2023/06/19 09:45:09;;;;;;;8.82;0.50;;;;;;;24.77;100.00;99150.69;7390948;19;20006;-59
2023/06/19 09:47:37;;;;;;;3.47;0.55;;;;;;;22.44;100.00;99148.63;7392642;19;20033;-61
2023/06/19 09:50:04;;;;;;;3.45;0.40;;;;;;;22.22;100.00;99149.50;7393443;19;20014;-60
2023/06/19 09:52:30;;;;;;;4.72;0.45;;;;;;;22.80;100.00;99145.44;7395588;19;20027;-60
2023/06/19 09:55:15;;;;;;;1.15;0.50;;;;;;;21.94;100.00;99142.00;7392067;19;20054;-60
2023/06/19 09:57:43;;;;;;;1.38;0.32;;;;;;;21.75;100.00;99156.59;7394197;19;20011;-60
2023/06/19 10:00:15;;;;;;;0.15;0.10;;;;;;;21.98;100.00;99159.41;7390569;19;20018;-60
2023/06/19 10:02:44;;;;;;;1.15;0.25;;;;;;;22.01;100.00;99146.91;7393174;19;20018;-60
2023/06/19 10:05:14;;;;;;;2.50;0.70;;;;;;;22.00;100.00;99142.59;7397708;19;20018;-57
2023/06/19 10:07:49;;;;;;;1.48;0.45;;;;;;;23.08;100.00;99142.97;7399468;19;20010;-56
2023/06/19 10:10:26;;;;;;;1.33;0.65;;;;;;;21.90;100.00;99153.00;7401926;19;20081;-60
2023/06/19 10:12:58;;;;;;;2.45;0.10;;;;;;;21.81;100.00;99159.22;7397467;19;20016;-60
2023/06/19 10:15:26;;;;;;;1.95;0.55;;;;;;;21.94;100.00;99158.28;7398129;19;20015;-59
2023/06/19 10:18:05;;;;;;;1.45;0.30;;;;;;;21.84;100.00;99155.28;7399043;19;20364;-59
2023/06/19 10:20:32;;;;;;;1.38;0.45;;;;;;;22.00;100.00;99153.91;7398525;19;20010;-60
2023/06/19 10:23:18;;;;;;;1.02;0.10;;;;;;;22.11;100.00;99156.31;7402967;19;20014;-57
2023/06/19 10:25:46;;;;;;;1.30;0.52;;;;;;;22.70;100.00;99153.09;7398981;19;20014;-56
2023/06/19 10:28:31;;;;;;;1.27;0.35;;;;;;;22.83;100.00;99153.53;7395678;19;20457;-56
2023/06/19 10:31:06;;;;;;;0.63;0.17;;;;;;;22.87;100.00;99156.72;7396215;19;20010;-56
2023/06/19 10:33:34;;;;;;;2.20;0.20;;;;;;;22.92;100.00;99158.59;7396086;19;20010;-56
2023/06/19 10:36:02;;;;;;;2.88;0.55;;;;;;;22.52;100.00;99164.28;7394818;19;20038;-56
2023/06/19 10:38:29;;;;;;;1.02;0.08;;;;;;;22.33;100.00;99163.22;7393987;19;20015;-57
2023/06/19 10:40:56;;;;;;;2.75;0.10;;;;;;;21.98;100.00;99159.41;7396364;19;20015;-57
2023/06/19 10:43:31;;;;;;;2.25;0.52;;;;;;;22.25;100.00;99160.44;7397940;19;20010;-56
2023/06/19 10:45:58;;;;;;;0.75;0.10;;;;;;;22.69;100.00;99158.00;7398420;19;20018;-56
2023/06/19 10:48:25;;;;;;;2.28;0.10;;;;;;;22.88;100.00;99163.16;7398569;19;20011;-56
2023/06/19 10:50:51;;;;;;;2.45;0.30;;;;;;;23.21;100.00;99167.50;7397349;19;20035;-56
2023/06/19 10:53:29;;;;;;;1.77;0.40;;;;;;;24.02;100.00;99170.16;7400131;19;20034;-56
2023/06/19 10:56:01;;;;;;;3.65;0.63;;;;;;;23.43;100.00;99160.91;7397267;19;20022;-56
2023/06/19 10:58:28;;;;;;;2.90;0.38;;;;;;;25.97;100.00;99158.56;7399178;19;20017;-56
2023/06/19 11:00:55;;;;;;;0.20;0.10;;;;;;;24.72;100.00;99160.97;7397351;19;20011;-56
2023/06/19 11:03:21;;;;;;;0.20;0.15;;;;;;;27.63;100.00;99154.91;7397633;19;20474;-56
2023/06/19 11:05:48;;;;;;;2.25;0.22;;;;;;;25.50;100.00;99152.22;7398470;19;20010;-56
2023/06/19 11:08:19;;;;;;;0.47;0.10;;;;;;;24.45;100.00;99145.22;7397949;19;20077;-56
2023/06/19 11:10:46;;;;;;;0.73;0.20;;;;;;;24.56;100.00;99153.25;7397299;19;20025;-56
2023/06/19 11:13:16;;;;;;;0.75;0.20;;;;;;;24.18;100.00;99150.09;7397311;19;20042;-56
2023/06/19 11:15:43;;;;;;;8.35;0.40;;;;;;;35.60;84.54;99139.63;7395288;19;20018;-56
2023/06/19 11:18:09;;;;;;;1.98;0.25;;;;;;;36.94;48.90;99128.22;7397466;19;20015;-56
2023/06/19 11:20:54;;;;;;;0.98;0.50;;;;;;;42.74;37.20;99118.09;7393752;19;20351;-56
2023/06/19 11:23:29;;;;;;;3.17;0.43;;;;;;;27.11;100.00;99128.38;7396734;19;20006;-56
2023/06/19 11:26:05;;;;;;;0.57;0.30;;;;;;;26.00;100.00;99132.44;7396126;19;20010;-56
2023/06/19 11:28:32;;;;;;;1.55;0.30;;;;;;;25.55;100.00;99130.47;7396279;19;20041;-58
2023/06/19 11:31:03;;;;;;;1.10;0.30;;;;;;;25.68;100.00;99132.13;7397093;19;20084;-56